sensor_id;sensor_type;location;lat;lon;timestamp;temperature;humidity
30381;DHT22;17169;50.966;11.038;2022-12-24T00:02:18;10.90;99.90
30381;DHT22;17169;50.966;11.038;2022-12-24T00:05:21;10.90;99.90
30381;DHT22;17169;50.966;11.038;2022-12-24T00:08:23;11.00;99.90
30381;DHT22;17169;50.966;11.038;2022-12-24T00:11:25;10.90;99.90
30381;DHT22;17169;50.966;11.038;2022-12-24T00:14:29;11.00;99.90
30381;DHT22;17169;50.966;11.038;2022-12-24T00:17:32;11.00;99.90
30381;DHT22;17169;50.966;11.038;2022-12-24T00:20:34;11.00;99.90
30381;DHT22;17169;50.966;11.038;2022-12-24T00:23:36;11.00;99.90
30381;DHT22;17169;50.966;11.038;2022-12-24T00:26:39;11.00;99.90
30381;DHT22;17169;50.966;11.038;2022-12-24T00:29:42;11.00;99.90
30381;DHT22;17169;50.966;11.038;2022-12-24T00:32:45;11.00;99.90
30381;DHT22;17169;50.966;11.038;2022-12-24T00:35:49;11.00;99.90
30381;DHT22;17169;50.966;11.038;2022-12-24T00:38:52;11.00;99.90
30381;DHT22;17169;50.966;11.038;2022-12-24T00:41:54;11.00;99.90
30381;DHT22;17169;50.966;11.038;2022-12-24T00:44:58;11.10;99.90
30381;DHT22;17169;50.966;11.038;2022-12-24T00:48:00;11.10;99.90
30381;DHT22;17169;50.966;11.038;2022-12-24T00:51:02;11.10;99.90
30381;DHT22;17169;50.966;11.038;2022-12-24T00:54:05;11.10;99.90
30381;DHT22;17169;50.966;11.038;2022-12-24T00:57:08;11.10;99.90
30381;DHT22;17169;50.966;11.038;2022-12-24T01:00:12;11.10;99.90
30381;DHT22;17169;50.966;11.038;2022-12-24T01:03:16;11.10;99.90
30381;DHT22;17169;50.966;11.038;2022-12-24T01:06:19;11.20;99.90
30381;DHT22;17169;50.966;11.038;2022-12-24T01:09:22;11.20;99.90
30381;DHT22;17169;50.966;11.038;2022-12-24T01:12:24;11.20;99.90
30381;DHT22;17169;50.966;11.038;2022-12-24T01:15:28;11.30;99.90
30381;DHT22;17169;50.966;11.038;2022-12-24T01:18:31;11.30;99.90
30381;DHT22;17169;50.966;11.038;2022-12-24T01:21:33;11.30;99.90
30381;DHT22;17169;50.966;11.038;2022-12-24T01:24:35;11.30;99.90
30381;DHT22;17169;50.966;11.038;2022-12-24T01:27:38;11.30;99.90
30381;DHT22;17169;50.966;11.038;2022-12-24T01:30:42;11.20;99.90
30381;DHT22;17169;50.966;11.038;2022-12-24T01:33:48;11.10;99.90
30381;DHT22;17169;50.966;11.038;2022-12-24T01:36:50;11.00;99.90
30381;DHT22;17169;50.966;11.038;2022-12-24T01:39:53;11.00;99.90
30381;DHT22;17169;50.966;11.038;2022-12-24T01:43:17;10.90;99.90
30381;DHT22;17169;50.966;11.038;2022-12-24T01:46:28;10.80;99.90
30381;DHT22;17169;50.966;11.038;2022-12-24T01:49:32;10.80;99.90
30381;DHT22;17169;50.966;11.038;2022-12-24T01:52:35;10.70;99.90
30381;DHT22;17169;50.966;11.038;2022-12-24T01:55:38;10.70;99.90
30381;DHT22;17169;50.966;11.038;2022-12-24T01:58:45;10.70;99.90
30381;DHT22;17169;50.966;11.038;2022-12-24T02:01:50;10.70;99.90
30381;DHT22;17169;50.966;11.038;2022-12-24T02:04:56;10.70;99.90
30381;DHT22;17169;50.966;11.038;2022-12-24T02:08:01;10.70;99.90
30381;DHT22;17169;50.966;11.038;2022-12-24T02:11:09;10.70;99.90
30381;DHT22;17169;50.966;11.038;2022-12-24T02:14:12;10.60;99.90
30381;DHT22;17169;50.966;11.038;2022-12-24T02:17:22;10.60;99.90
30381;DHT22;17169;50.966;11.038;2022-12-24T02:24:36;10.50;99.90
30381;DHT22;17169;50.966;11.038;2022-12-24T02:27:53;10.50;99.90
30381;DHT22;17169;50.966;11.038;2022-12-24T02:31:00;10.60;99.90
30381;DHT22;17169;50.966;11.038;2022-12-24T02:34:07;10.60;99.90
30381;DHT22;17169;50.966;11.038;2022-12-24T02:37:16;10.70;99.90
30381;DHT22;17169;50.966;11.038;2022-12-24T02:40:23;10.70;99.90
30381;DHT22;17169;50.966;11.038;2022-12-24T02:43:27;10.70;99.90
30381;DHT22;17169;50.966;11.038;2022-12-24T02:46:31;10.80;99.90
30381;DHT22;17169;50.966;11.038;2022-12-24T02:49:34;10.70;99.90
30381;DHT22;17169;50.966;11.038;2022-12-24T02:52:38;10.70;99.90
30381;DHT22;17169;50.966;11.038;2022-12-24T02:55:47;10.70;99.90
30381;DHT22;17169;50.966;11.038;2022-12-24T02:59:03;10.60;99.90
30381;DHT22;17169;50.966;11.038;2022-12-24T03:02:23;10.60;99.90
30381;DHT22;17169;50.966;11.038;2022-12-24T03:05:30;10.50;99.90
30381;DHT22;17169;50.966;11.038;2022-12-24T03:08:43;10.50;99.90
30381;DHT22;17169;50.966;11.038;2022-12-24T03:11:56;10.50;99.90
30381;DHT22;17169;50.966;11.038;2022-12-24T03:15:00;10.50;99.90
30381;DHT22;17169;50.966;11.038;2022-12-24T03:18:05;10.50;99.90
30381;DHT22;17169;50.966;11.038;2022-12-24T03:21:11;10.50;99.90
30381;DHT22;17169;50.966;11.038;2022-12-24T03:24:14;10.50;99.90
30381;DHT22;17169;50.966;11.038;2022-12-24T03:27:17;10.40;99.90
30381;DHT22;17169;50.966;11.038;2022-12-24T03:30:20;10.40;99.90
30381;DHT22;17169;50.966;11.038;2022-12-24T03:33:23;10.40;99.90
30381;DHT22;17169;50.966;11.038;2022-12-24T03:36:26;10.40;99.90
30381;DHT22;17169;50.966;11.038;2022-12-24T03:39:30;10.30;99.90
30381;DHT22;17169;50.966;11.038;2022-12-24T03:42:33;10.30;99.90
30381;DHT22;17169;50.966;11.038;2022-12-24T03:45:35;10.40;99.90
30381;DHT22;17169;50.966;11.038;2022-12-24T03:48:39;10.30;99.90
30381;DHT22;17169;50.966;11.038;2022-12-24T03:51:41;10.30;99.90
30381;DHT22;17169;50.966;11.038;2022-12-24T03:54:44;10.30;99.90
30381;DHT22;17169;50.966;11.038;2022-12-24T03:57:46;10.30;99.90
30381;DHT22;17169;50.966;11.038;2022-12-24T04:00:48;10.30;99.90
30381;DHT22;17169;50.966;11.038;2022-12-24T04:03:52;10.30;99.90
30381;DHT22;17169;50.966;11.038;2022-12-24T04:06:54;10.30;99.90
30381;DHT22;17169;50.966;11.038;2022-12-24T04:09:57;10.30;99.90
30381;DHT22;17169;50.966;11.038;2022-12-24T04:12:59;10.20;99.90
30381;DHT22;17169;50.966;11.038;2022-12-24T04:16:03;10.20;99.90
30381;DHT22;17169;50.966;11.038;2022-12-24T04:19:08;10.20;99.90
30381;DHT22;17169;50.966;11.038;2022-12-24T04:22:10;10.10;99.90
30381;DHT22;17169;50.966;11.038;2022-12-24T04:25:13;10.10;99.90
30381;DHT22;17169;50.966;11.038;2022-12-24T04:28:16;10.10;99.90
30381;DHT22;17169;50.966;11.038;2022-12-24T04:31:18;10.20;99.90
30381;DHT22;17169;50.966;11.038;2022-12-24T04:34:22;10.20;99.90
30381;DHT22;17169;50.966;11.038;2022-12-24T04:37:24;10.20;99.90
30381;DHT22;17169;50.966;11.038;2022-12-24T04:40:26;10.20;99.90
30381;DHT22;17169;50.966;11.038;2022-12-24T04:43:29;10.30;99.90
30381;DHT22;17169;50.966;11.038;2022-12-24T04:46:31;10.30;99.90
30381;DHT22;17169;50.966;11.038;2022-12-24T04:49:36;10.30;99.90
30381;DHT22;17169;50.966;11.038;2022-12-24T04:52:39;10.30;99.90
30381;DHT22;17169;50.966;11.038;2022-12-24T04:55:43;10.40;99.90
30381;DHT22;17169;50.966;11.038;2022-12-24T04:58:46;10.40;99.90
30381;DHT22;17169;50.966;11.038;2022-12-24T05:01:49;10.40;99.90
30381;DHT22;17169;50.966;11.038;2022-12-24T05:04:52;10.40;99.90
30381;DHT22;17169;50.966;11.038;2022-12-24T05:07:55;10.40;99.90
30381;DHT22;17169;50.966;11.038;2022-12-24T05:10:57;10.40;99.90
30381;DHT22;17169;50.966;11.038;2022-12-24T05:14:00;10.40;99.90
30381;DHT22;17169;50.966;11.038;2022-12-24T05:17:02;10.40;99.90
30381;DHT22;17169;50.966;11.038;2022-12-24T05:20:07;10.40;99.90
30381;DHT22;17169;50.966;11.038;2022-12-24T05:23:14;10.40;99.90
30381;DHT22;17169;50.966;11.038;2022-12-24T05:26:37;10.30;99.90
30381;DHT22;17169;50.966;11.038;2022-12-24T05:29:41;10.20;99.90
30381;DHT22;17169;50.966;11.038;2022-12-24T05:32:43;10.20;99.90
30381;DHT22;17169;50.966;11.038;2022-12-24T05:35:47;10.10;99.90
30381;DHT22;17169;50.966;11.038;2022-12-24T05:38:50;10.00;99.90
30381;DHT22;17169;50.966;11.038;2022-12-24T05:41:52;9.90;99.90
30381;DHT22;17169;50.966;11.038;2022-12-24T05:44:54;9.80;99.90
30381;DHT22;17169;50.966;11.038;2022-12-24T05:47:57;9.70;99.90
30381;DHT22;17169;50.966;11.038;2022-12-24T05:51:03;9.60;99.90
30381;DHT22;17169;50.966;11.038;2022-12-24T05:54:06;9.50;99.90
30381;DHT22;17169;50.966;11.038;2022-12-24T05:57:08;9.40;99.90
30381;DHT22;17169;50.966;11.038;2022-12-24T06:00:11;9.30;99.90
30381;DHT22;17169;50.966;11.038;2022-12-24T06:03:13;9.30;99.90
30381;DHT22;17169;50.966;11.038;2022-12-24T06:06:19;9.30;99.90
30381;DHT22;17169;50.966;11.038;2022-12-24T06:09:22;9.20;99.90
30381;DHT22;17169;50.966;11.038;2022-12-24T06:12:24;9.20;99.90
30381;DHT22;17169;50.966;11.038;2022-12-24T06:15:26;9.20;99.90
30381;DHT22;17169;50.966;11.038;2022-12-24T06:18:29;9.10;99.90
30381;DHT22;17169;50.966;11.038;2022-12-24T06:21:33;9.10;99.90
30381;DHT22;17169;50.966;11.038;2022-12-24T06:24:35;9.10;99.90
30381;DHT22;17169;50.966;11.038;2022-12-24T06:27:38;9.10;99.90
30381;DHT22;17169;50.966;11.038;2022-12-24T06:30:40;9.00;99.90
30381;DHT22;17169;50.966;11.038;2022-12-24T06:33:43;9.00;99.90
30381;DHT22;17169;50.966;11.038;2022-12-24T06:36:46;9.00;99.90
30381;DHT22;17169;50.966;11.038;2022-12-24T06:39:49;9.00;99.90
30381;DHT22;17169;50.966;11.038;2022-12-24T06:42:51;8.90;99.90
30381;DHT22;17169;50.966;11.038;2022-12-24T06:45:53;8.90;99.90
30381;DHT22;17169;50.966;11.038;2022-12-24T06:48:56;8.90;99.90
30381;DHT22;17169;50.966;11.038;2022-12-24T06:52:00;8.90;99.90
30381;DHT22;17169;50.966;11.038;2022-12-24T06:55:02;8.90;99.90
30381;DHT22;17169;50.966;11.038;2022-12-24T06:58:05;8.90;99.90
30381;DHT22;17169;50.966;11.038;2022-12-24T07:01:10;8.80;99.90
30381;DHT22;17169;50.966;11.038;2022-12-24T07:04:12;8.90;99.90
30381;DHT22;17169;50.966;11.038;2022-12-24T07:07:16;8.80;99.90
30381;DHT22;17169;50.966;11.038;2022-12-24T07:10:19;8.90;99.90
30381;DHT22;17169;50.966;11.038;2022-12-24T07:13:22;8.90;99.90
30381;DHT22;17169;50.966;11.038;2022-12-24T07:16:24;9.00;99.90
30381;DHT22;17169;50.966;11.038;2022-12-24T07:19:27;9.00;99.90
30381;DHT22;17169;50.966;11.038;2022-12-24T07:22:31;9.10;99.90
30381;DHT22;17169;50.966;11.038;2022-12-24T07:25:33;9.20;99.90
30381;DHT22;17169;50.966;11.038;2022-12-24T07:28:35;9.20;99.90
30381;DHT22;17169;50.966;11.038;2022-12-24T07:31:38;9.30;99.90
30381;DHT22;17169;50.966;11.038;2022-12-24T07:34:40;9.40;99.90
30381;DHT22;17169;50.966;11.038;2022-12-24T07:37:44;9.50;99.90
30381;DHT22;17169;50.966;11.038;2022-12-24T07:40:46;9.60;99.90
30381;DHT22;17169;50.966;11.038;2022-12-24T07:43:49;9.60;99.90
30381;DHT22;17169;50.966;11.038;2022-12-24T07:46:51;9.70;99.90
30381;DHT22;17169;50.966;11.038;2022-12-24T07:49:54;9.80;99.90
30381;DHT22;17169;50.966;11.038;2022-12-24T07:52:57;9.80;99.90
30381;DHT22;17169;50.966;11.038;2022-12-24T07:56:00;9.80;99.90
30381;DHT22;17169;50.966;11.038;2022-12-24T07:59:02;9.90;99.90
30381;DHT22;17169;50.966;11.038;2022-12-24T08:02:05;9.90;99.90
30381;DHT22;17169;50.966;11.038;2022-12-24T08:05:08;9.90;99.90
30381;DHT22;17169;50.966;11.038;2022-12-24T08:08:12;9.90;99.90
30381;DHT22;17169;50.966;11.038;2022-12-24T08:11:14;9.80;99.90
30381;DHT22;17169;50.966;11.038;2022-12-24T08:14:17;9.80;99.90
30381;DHT22;17169;50.966;11.038;2022-12-24T08:17:19;9.70;99.90
30381;DHT22;17169;50.966;11.038;2022-12-24T08:20:21;9.70;99.90
30381;DHT22;17169;50.966;11.038;2022-12-24T08:23:25;9.80;99.90
30381;DHT22;17169;50.966;11.038;2022-12-24T08:26:27;9.80;99.90
30381;DHT22;17169;50.966;11.038;2022-12-24T08:29:30;9.70;99.90
30381;DHT22;17169;50.966;11.038;2022-12-24T08:32:32;9.80;99.90
30381;DHT22;17169;50.966;11.038;2022-12-24T08:35:35;9.80;99.90
30381;DHT22;17169;50.966;11.038;2022-12-24T08:38:38;9.90;99.90
30381;DHT22;17169;50.966;11.038;2022-12-24T08:41:41;9.90;99.90
30381;DHT22;17169;50.966;11.038;2022-12-24T08:44:43;10.00;99.90
30381;DHT22;17169;50.966;11.038;2022-12-24T08:47:46;10.00;99.90
30381;DHT22;17169;50.966;11.038;2022-12-24T08:50:48;10.10;99.90
30381;DHT22;17169;50.966;11.038;2022-12-24T08:53:52;10.20;99.90
30381;DHT22;17169;50.966;11.038;2022-12-24T08:56:54;10.20;99.90
30381;DHT22;17169;50.966;11.038;2022-12-24T08:59:57;10.30;99.90
30381;DHT22;17169;50.966;11.038;2022-12-24T09:02:59;10.30;99.90
30381;DHT22;17169;50.966;11.038;2022-12-24T09:06:02;10.30;99.90
30381;DHT22;17169;50.966;11.038;2022-12-24T09:09:06;10.30;99.90
30381;DHT22;17169;50.966;11.038;2022-12-24T09:12:08;10.30;99.90
30381;DHT22;17169;50.966;11.038;2022-12-24T09:15:11;10.30;99.90
30381;DHT22;17169;50.966;11.038;2022-12-24T09:18:14;10.30;99.90
30381;DHT22;17169;50.966;11.038;2022-12-24T09:21:16;10.30;99.90
30381;DHT22;17169;50.966;11.038;2022-12-24T09:24:20;10.40;99.90
30381;DHT22;17169;50.966;11.038;2022-12-24T09:27:22;10.40;99.90
30381;DHT22;17169;50.966;11.038;2022-12-24T09:30:25;10.40;99.90
30381;DHT22;17169;50.966;11.038;2022-12-24T09:33:28;10.40;99.90
30381;DHT22;17169;50.966;11.038;2022-12-24T09:36:32;10.40;99.90
30381;DHT22;17169;50.966;11.038;2022-12-24T09:39:36;10.40;99.90
30381;DHT22;17169;50.966;11.038;2022-12-24T09:42:45;10.40;99.90
30381;DHT22;17169;50.966;11.038;2022-12-24T09:46:03;10.40;99.90
30381;DHT22;17169;50.966;11.038;2022-12-24T09:49:10;10.40;99.90
30381;DHT22;17169;50.966;11.038;2022-12-24T09:52:25;10.30;99.90
30381;DHT22;17169;50.966;11.038;2022-12-24T09:55:32;10.30;99.90
30381;DHT22;17169;50.966;11.038;2022-12-24T09:58:39;10.30;99.90
30381;DHT22;17169;50.966;11.038;2022-12-24T10:01:43;10.20;99.90
30381;DHT22;17169;50.966;11.038;2022-12-24T10:04:46;10.30;99.90
30381;DHT22;17169;50.966;11.038;2022-12-24T10:07:55;10.20;99.90
30381;DHT22;17169;50.966;11.038;2022-12-24T10:11:09;10.20;99.90
30381;DHT22;17169;50.966;11.038;2022-12-24T10:14:21;10.30;99.90
30381;DHT22;17169;50.966;11.038;2022-12-24T10:17:45;10.30;99.90
30381;DHT22;17169;50.966;11.038;2022-12-24T10:20:58;10.30;99.90
30381;DHT22;17169;50.966;11.038;2022-12-24T10:24:05;10.30;99.90
30381;DHT22;17169;50.966;11.038;2022-12-24T10:27:12;10.30;99.90
30381;DHT22;17169;50.966;11.038;2022-12-24T10:30:18;10.40;99.90
30381;DHT22;17169;50.966;11.038;2022-12-24T10:33:30;10.40;99.90
30381;DHT22;17169;50.966;11.038;2022-12-24T10:36:34;10.60;99.90
30381;DHT22;17169;50.966;11.038;2022-12-24T10:39:36;10.60;99.90
30381;DHT22;17169;50.966;11.038;2022-12-24T10:42:40;10.70;99.90
30381;DHT22;17169;50.966;11.038;2022-12-24T10:45:45;10.80;99.90
30381;DHT22;17169;50.966;11.038;2022-12-24T10:48:51;10.90;99.90
30381;DHT22;17169;50.966;11.038;2022-12-24T10:51:58;10.90;99.90
30381;DHT22;17169;50.966;11.038;2022-12-24T10:55:06;10.90;99.90
30381;DHT22;17169;50.966;11.038;2022-12-24T10:58:16;10.90;99.90
30381;DHT22;17169;50.966;11.038;2022-12-24T11:01:41;10.90;99.90
30381;DHT22;17169;50.966;11.038;2022-12-24T11:04:46;11.00;99.90
30381;DHT22;17169;50.966;11.038;2022-12-24T11:07:58;11.00;99.90
30381;DHT22;17169;50.966;11.038;2022-12-24T11:11:02;11.00;99.90
30381;DHT22;17169;50.966;11.038;2022-12-24T11:14:15;11.00;99.90
30381;DHT22;17169;50.966;11.038;2022-12-24T11:17:20;11.10;99.90
30381;DHT22;17169;50.966;11.038;2022-12-24T11:20:26;11.20;99.90
30381;DHT22;17169;50.966;11.038;2022-12-24T11:23:29;11.30;99.90
30381;DHT22;17169;50.966;11.038;2022-12-24T11:26:32;11.30;99.90
30381;DHT22;17169;50.966;11.038;2022-12-24T11:29:36;11.40;99.90
30381;DHT22;17169;50.966;11.038;2022-12-24T11:32:38;11.40;99.90
30381;DHT22;17169;50.966;11.038;2022-12-24T11:35:45;11.40;99.90
30381;DHT22;17169;50.966;11.038;2022-12-24T11:38:52;11.40;99.90
30381;DHT22;17169;50.966;11.038;2022-12-24T11:41:55;11.50;99.90
30381;DHT22;17169;50.966;11.038;2022-12-24T11:45:00;11.60;99.90
30381;DHT22;17169;50.966;11.038;2022-12-24T11:48:24;11.70;99.90
30381;DHT22;17169;50.966;11.038;2022-12-24T11:51:26;11.70;99.90
30381;DHT22;17169;50.966;11.038;2022-12-24T11:54:31;11.70;99.90
30381;DHT22;17169;50.966;11.038;2022-12-24T11:57:42;11.80;99.90
30381;DHT22;17169;50.966;11.038;2022-12-24T12:00:50;11.80;99.90
30381;DHT22;17169;50.966;11.038;2022-12-24T12:03:55;11.70;99.90
30381;DHT22;17169;50.966;11.038;2022-12-24T12:07:02;11.70;99.90
30381;DHT22;17169;50.966;11.038;2022-12-24T12:10:10;11.70;99.90
30381;DHT22;17169;50.966;11.038;2022-12-24T12:13:19;11.80;99.90
30381;DHT22;17169;50.966;11.038;2022-12-24T12:16:29;11.80;99.90
30381;DHT22;17169;50.966;11.038;2022-12-24T12:19:56;11.80;99.90
30381;DHT22;17169;50.966;11.038;2022-12-24T12:23:04;11.80;99.90
30381;DHT22;17169;50.966;11.038;2022-12-24T12:26:16;11.80;99.90
30381;DHT22;17169;50.966;11.038;2022-12-24T12:29:24;11.80;99.90
30381;DHT22;17169;50.966;11.038;2022-12-24T12:32:40;11.80;99.90
30381;DHT22;17169;50.966;11.038;2022-12-24T12:35:43;11.80;99.90
30381;DHT22;17169;50.966;11.038;2022-12-24T12:38:46;11.80;99.90
30381;DHT22;17169;50.966;11.038;2022-12-24T12:41:53;11.70;99.90
30381;DHT22;17169;50.966;11.038;2022-12-24T12:45:28;11.70;99.90
30381;DHT22;17169;50.966;11.038;2022-12-24T12:48:53;11.70;99.90
30381;DHT22;17169;50.966;11.038;2022-12-24T12:52:04;11.70;99.90
30381;DHT22;17169;50.966;11.038;2022-12-24T12:55:20;11.80;99.90
30381;DHT22;17169;50.966;11.038;2022-12-24T12:58:28;11.80;99.90
30381;DHT22;17169;50.966;11.038;2022-12-24T13:01:39;11.70;99.90
30381;DHT22;17169;50.966;11.038;2022-12-24T13:05:09;11.70;99.90
30381;DHT22;17169;50.966;11.038;2022-12-24T13:12:21;11.70;99.90
30381;DHT22;17169;50.966;11.038;2022-12-24T13:15:47;11.70;99.90
30381;DHT22;17169;50.966;11.038;2022-12-24T13:19:03;11.80;99.90
30381;DHT22;17169;50.966;11.038;2022-12-24T13:22:16;11.80;99.90
30381;DHT22;17169;50.966;11.038;2022-12-24T13:25:26;11.80;99.90
30381;DHT22;17169;50.966;11.038;2022-12-24T13:28:34;11.90;99.90
30381;DHT22;17169;50.966;11.038;2022-12-24T13:31:38;11.90;99.90
30381;DHT22;17169;50.966;11.038;2022-12-24T13:34:47;11.90;99.90
30381;DHT22;17169;50.966;11.038;2022-12-24T13:37:51;11.80;99.90
30381;DHT22;17169;50.966;11.038;2022-12-24T13:40:54;11.70;99.90
30381;DHT22;17169;50.966;11.038;2022-12-24T13:44:03;11.70;99.90
30381;DHT22;17169;50.966;11.038;2022-12-24T13:47:18;11.70;99.90
30381;DHT22;17169;50.966;11.038;2022-12-24T13:50:23;11.70;99.90
30381;DHT22;17169;50.966;11.038;2022-12-24T13:53:30;11.70;99.90
30381;DHT22;17169;50.966;11.038;2022-12-24T13:56:35;11.60;99.90
30381;DHT22;17169;50.966;11.038;2022-12-24T13:59:38;11.60;99.90
30381;DHT22;17169;50.966;11.038;2022-12-24T14:02:47;11.60;99.90
30381;DHT22;17169;50.966;11.038;2022-12-24T14:05:52;11.60;99.90
30381;DHT22;17169;50.966;11.038;2022-12-24T14:09:05;11.60;99.90
30381;DHT22;17169;50.966;11.038;2022-12-24T14:12:46;11.50;99.90
30381;DHT22;17169;50.966;11.038;2022-12-24T14:16:04;11.40;99.90
30381;DHT22;17169;50.966;11.038;2022-12-24T14:19:12;11.30;99.90
30381;DHT22;17169;50.966;11.038;2022-12-24T14:22:24;11.30;99.90
30381;DHT22;17169;50.966;11.038;2022-12-24T14:25:30;11.20;99.90
30381;DHT22;17169;50.966;11.038;2022-12-24T14:28:37;11.20;99.90
30381;DHT22;17169;50.966;11.038;2022-12-24T14:31:49;11.20;99.90
30381;DHT22;17169;50.966;11.038;2022-12-24T14:35:08;11.20;99.90
30381;DHT22;17169;50.966;11.038;2022-12-24T14:38:14;11.20;99.90
30381;DHT22;17169;50.966;11.038;2022-12-24T14:41:30;11.20;99.90
30381;DHT22;17169;50.966;11.038;2022-12-24T14:44:42;11.20;99.90
30381;DHT22;17169;50.966;11.038;2022-12-24T14:47:53;11.10;99.90
30381;DHT22;17169;50.966;11.038;2022-12-24T14:51:04;11.10;99.90
30381;DHT22;17169;50.966;11.038;2022-12-24T14:54:25;11.10;99.90
30381;DHT22;17169;50.966;11.038;2022-12-24T14:57:31;10.90;99.90
30381;DHT22;17169;50.966;11.038;2022-12-24T15:00:34;10.80;99.90
30381;DHT22;17169;50.966;11.038;2022-12-24T15:03:36;10.80;99.90
30381;DHT22;17169;50.966;11.038;2022-12-24T15:06:41;10.70;99.90
30381;DHT22;17169;50.966;11.038;2022-12-24T15:09:44;10.70;99.90
30381;DHT22;17169;50.966;11.038;2022-12-24T15:12:48;10.60;99.90
30381;DHT22;17169;50.966;11.038;2022-12-24T15:15:52;10.50;99.90
30381;DHT22;17169;50.966;11.038;2022-12-24T15:18:58;10.50;99.90
30381;DHT22;17169;50.966;11.038;2022-12-24T15:22:03;10.50;99.90
30381;DHT22;17169;50.966;11.038;2022-12-24T15:25:18;10.50;99.90
30381;DHT22;17169;50.966;11.038;2022-12-24T15:28:22;10.50;99.90
30381;DHT22;17169;50.966;11.038;2022-12-24T15:31:27;10.50;99.90
30381;DHT22;17169;50.966;11.038;2022-12-24T15:34:35;10.50;99.90
30381;DHT22;17169;50.966;11.038;2022-12-24T15:37:40;10.50;99.90
30381;DHT22;17169;50.966;11.038;2022-12-24T15:40:47;10.50;99.90
30381;DHT22;17169;50.966;11.038;2022-12-24T15:43:52;10.40;99.90
30381;DHT22;17169;50.966;11.038;2022-12-24T15:46:58;10.40;99.90
30381;DHT22;17169;50.966;11.038;2022-12-24T15:50:01;10.30;99.90
30381;DHT22;17169;50.966;11.038;2022-12-24T15:53:06;10.20;99.90
30381;DHT22;17169;50.966;11.038;2022-12-24T15:56:12;10.20;99.90
30381;DHT22;17169;50.966;11.038;2022-12-24T15:59:36;10.10;99.90
30381;DHT22;17169;50.966;11.038;2022-12-24T16:02:39;10.00;99.90
30381;DHT22;17169;50.966;11.038;2022-12-24T16:05:43;9.90;99.90
30381;DHT22;17169;50.966;11.038;2022-12-24T16:08:46;9.80;99.90
30381;DHT22;17169;50.966;11.038;2022-12-24T16:11:50;9.80;99.90
30381;DHT22;17169;50.966;11.038;2022-12-24T16:14:56;9.70;99.90
30381;DHT22;17169;50.966;11.038;2022-12-24T16:17:59;9.70;99.90
30381;DHT22;17169;50.966;11.038;2022-12-24T16:21:02;9.60;99.90
30381;DHT22;17169;50.966;11.038;2022-12-24T16:24:12;9.60;99.90
30381;DHT22;17169;50.966;11.038;2022-12-24T16:27:15;9.50;99.90
30381;DHT22;17169;50.966;11.038;2022-12-24T16:30:19;9.50;99.90
30381;DHT22;17169;50.966;11.038;2022-12-24T16:33:23;9.40;99.90
30381;DHT22;17169;50.966;11.038;2022-12-24T16:36:25;9.40;99.90
30381;DHT22;17169;50.966;11.038;2022-12-24T16:39:30;9.30;99.90
30381;DHT22;17169;50.966;11.038;2022-12-24T16:42:32;9.30;99.90
30381;DHT22;17169;50.966;11.038;2022-12-24T16:45:59;9.30;99.90
30381;DHT22;17169;50.966;11.038;2022-12-24T16:49:01;9.20;99.90
30381;DHT22;17169;50.966;11.038;2022-12-24T16:52:04;9.20;99.90
30381;DHT22;17169;50.966;11.038;2022-12-24T16:55:11;9.10;99.90
30381;DHT22;17169;50.966;11.038;2022-12-24T16:58:16;9.10;99.90
30381;DHT22;17169;50.966;11.038;2022-12-24T17:01:19;9.10;99.90
30381;DHT22;17169;50.966;11.038;2022-12-24T17:04:22;9.00;99.90
30381;DHT22;17169;50.966;11.038;2022-12-24T17:07:24;9.00;99.90
30381;DHT22;17169;50.966;11.038;2022-12-24T17:10:27;9.00;99.90
30381;DHT22;17169;50.966;11.038;2022-12-24T17:13:29;9.10;99.90
30381;DHT22;17169;50.966;11.038;2022-12-24T17:16:33;9.10;99.90
30381;DHT22;17169;50.966;11.038;2022-12-24T17:19:37;9.00;99.90
30381;DHT22;17169;50.966;11.038;2022-12-24T17:22:39;9.10;99.90
30381;DHT22;17169;50.966;11.038;2022-12-24T17:25:42;9.00;99.90
30381;DHT22;17169;50.966;11.038;2022-12-24T17:28:44;9.00;99.90
30381;DHT22;17169;50.966;11.038;2022-12-24T17:31:48;8.90;99.90
30381;DHT22;17169;50.966;11.038;2022-12-24T17:34:51;8.90;99.90
30381;DHT22;17169;50.966;11.038;2022-12-24T17:37:53;8.90;99.90
30381;DHT22;17169;50.966;11.038;2022-12-24T17:41:00;8.80;99.90
30381;DHT22;17169;50.966;11.038;2022-12-24T17:44:02;8.80;99.90
30381;DHT22;17169;50.966;11.038;2022-12-24T17:47:10;8.80;99.90
30381;DHT22;17169;50.966;11.038;2022-12-24T17:50:12;8.80;99.90
30381;DHT22;17169;50.966;11.038;2022-12-24T17:53:14;8.70;99.90
30381;DHT22;17169;50.966;11.038;2022-12-24T17:56:17;8.70;99.90
30381;DHT22;17169;50.966;11.038;2022-12-24T17:59:19;8.70;99.90
30381;DHT22;17169;50.966;11.038;2022-12-24T18:02:23;8.60;99.90
30381;DHT22;17169;50.966;11.038;2022-12-24T18:05:25;8.60;99.90
30381;DHT22;17169;50.966;11.038;2022-12-24T18:08:28;8.60;99.90
30381;DHT22;17169;50.966;11.038;2022-12-24T18:11:32;8.50;99.90
30381;DHT22;17169;50.966;11.038;2022-12-24T18:14:34;8.50;99.90
30381;DHT22;17169;50.966;11.038;2022-12-24T18:17:38;8.50;99.90
30381;DHT22;17169;50.966;11.038;2022-12-24T18:20:40;8.40;99.90
30381;DHT22;17169;50.966;11.038;2022-12-24T18:23:44;8.40;99.90
30381;DHT22;17169;50.966;11.038;2022-12-24T18:26:47;8.40;99.90
30381;DHT22;17169;50.966;11.038;2022-12-24T18:29:50;8.30;99.90
30381;DHT22;17169;50.966;11.038;2022-12-24T18:32:53;8.20;99.90
30381;DHT22;17169;50.966;11.038;2022-12-24T18:35:56;8.20;99.90
30381;DHT22;17169;50.966;11.038;2022-12-24T18:38:58;8.20;99.90
30381;DHT22;17169;50.966;11.038;2022-12-24T18:42:01;8.10;99.90
30381;DHT22;17169;50.966;11.038;2022-12-24T18:45:04;8.10;99.90
30381;DHT22;17169;50.966;11.038;2022-12-24T18:48:08;8.10;99.90
30381;DHT22;17169;50.966;11.038;2022-12-24T18:51:10;8.10;99.90
30381;DHT22;17169;50.966;11.038;2022-12-24T18:54:13;8.10;99.90
30381;DHT22;17169;50.966;11.038;2022-12-24T18:57:15;8.00;99.90
30381;DHT22;17169;50.966;11.038;2022-12-24T19:00:18;7.90;99.90
30381;DHT22;17169;50.966;11.038;2022-12-24T19:03:22;7.90;99.90
30381;DHT22;17169;50.966;11.038;2022-12-24T19:06:25;7.90;99.90
30381;DHT22;17169;50.966;11.038;2022-12-24T19:09:27;7.80;99.90
30381;DHT22;17169;50.966;11.038;2022-12-24T19:12:30;7.80;99.90
30381;DHT22;17169;50.966;11.038;2022-12-24T19:15:32;7.70;99.90
30381;DHT22;17169;50.966;11.038;2022-12-24T19:18:36;7.70;99.90
30381;DHT22;17169;50.966;11.038;2022-12-24T19:21:38;7.70;99.90
30381;DHT22;17169;50.966;11.038;2022-12-24T19:24:40;7.70;99.90
30381;DHT22;17169;50.966;11.038;2022-12-24T19:27:43;7.70;99.90